createdAt,value
2018-03-25T00:00:44.612Z,2.10
2018-03-25T00:03:11.341Z,2.20
2018-03-25T00:05:37.770Z,2.20
2018-03-25T00:08:04.203Z,1.80
2018-03-25T00:10:31.375Z,2.10
2018-03-25T00:12:58.186Z,2.00
2018-03-25T00:15:24.713Z,2.10
2018-03-25T00:17:51.386Z,2.10
2018-03-25T00:20:19.480Z,1.90
2018-03-25T00:22:46.088Z,1.50
2018-03-25T00:25:12.900Z,1.60
2018-03-25T00:27:39.385Z,1.60
2018-03-25T00:30:06.556Z,1.40
2018-03-25T00:32:33.087Z,1.40
2018-03-25T00:34:59.446Z,1.20
2018-03-25T00:37:25.883Z,1.10
2018-03-25T00:39:53.189Z,1.10
2018-03-25T00:42:20.695Z,1.10
2018-03-25T00:44:47.533Z,1.10
2018-03-25T00:47:14.477Z,0.90
2018-03-25T00:49:41.291Z,0.60
2018-03-25T00:52:08.688Z,0.70
2018-03-25T00:54:35.891Z,0.80
2018-03-25T00:57:02.315Z,0.90
2018-03-25T00:59:28.969Z,0.80
2018-03-25T01:01:55.757Z,0.80
2018-03-25T01:04:23.143Z,0.60
2018-03-25T01:06:49.648Z,0.50
2018-03-25T01:09:16.584Z,0.60
2018-03-25T01:11:43.119Z,0.50
2018-03-25T01:14:09.997Z,0.40
2018-03-25T01:16:37.691Z,0.40
2018-03-25T01:19:04.978Z,0.30
2018-03-25T01:21:31.513Z,0.40
2018-03-25T01:23:58.023Z,0.60
2018-03-25T01:26:25.213Z,0.70
2018-03-25T01:28:52.353Z,0.70
2018-03-25T01:31:18.770Z,0.80
2018-03-25T01:33:45.878Z,0.90
2018-03-25T01:36:12.313Z,1.00
2018-03-25T01:38:38.752Z,1.10
2018-03-25T01:41:05.580Z,0.80
2018-03-25T01:43:31.960Z,1.10
2018-03-25T01:45:58.395Z,1.30
2018-03-25T01:48:24.822Z,1.20
2018-03-25T01:50:52.020Z,1.30
2018-03-25T01:53:18.385Z,1.40
2018-03-25T01:55:45.497Z,1.40
2018-03-25T01:58:11.975Z,1.40
2018-03-25T02:00:38.370Z,1.50
2018-03-25T02:03:04.770Z,1.50
2018-03-25T02:05:31.986Z,1.50
2018-03-25T02:07:59.211Z,1.50
2018-03-25T02:10:25.601Z,1.00
2018-03-25T02:12:52.000Z,1.60
2018-03-25T02:15:18.601Z,1.50
2018-03-25T02:17:45.062Z,1.60
2018-03-25T02:20:11.488Z,1.60
2018-03-25T02:22:37.868Z,1.70
2018-03-25T02:25:04.304Z,1.70
2018-03-25T02:27:31.900Z,1.60
2018-03-25T02:29:58.332Z,1.50
2018-03-25T02:32:24.688Z,1.60
2018-03-25T02:34:51.066Z,1.70
2018-03-25T02:37:17.491Z,1.70
2018-03-25T02:39:43.917Z,1.80
2018-03-25T02:42:10.390Z,1.80
2018-03-25T02:44:36.769Z,1.80
2018-03-25T02:47:03.969Z,1.90
2018-03-25T02:49:31.157Z,2.00
2018-03-25T02:51:57.660Z,1.90
2018-03-25T02:54:24.416Z,1.70
2018-03-25T02:56:50.838Z,1.90
2018-03-25T02:59:17.229Z,1.90
2018-03-25T03:01:43.639Z,2.00
2018-03-25T03:04:10.096Z,1.90
2018-03-25T03:06:36.654Z,1.80
2018-03-25T03:09:03.121Z,2.00
2018-03-25T03:11:29.594Z,2.10
2018-03-25T03:13:56.015Z,2.20
2018-03-25T03:16:23.516Z,2.20
2018-03-25T03:18:49.893Z,2.20
2018-03-25T03:21:16.335Z,2.20
2018-03-25T03:23:42.720Z,2.00
2018-03-25T03:26:09.212Z,2.00
2018-03-25T03:28:35.615Z,2.00
2018-03-25T03:31:02.449Z,2.10
2018-03-25T03:33:28.990Z,1.90
2018-03-25T03:35:55.398Z,1.90
2018-03-25T03:38:21.893Z,1.90
2018-03-25T03:40:48.414Z,2.10
2018-03-25T03:43:14.796Z,2.00
2018-03-25T03:46:02.565Z,2.00
2018-03-25T03:48:35.162Z,2.40
2018-03-25T03:51:02.430Z,1.80
2018-03-25T03:53:29.624Z,2.00
2018-03-25T03:55:56.071Z,2.00
2018-03-25T03:58:22.496Z,2.10
2018-03-25T04:00:48.881Z,2.00
2018-03-25T04:03:16.052Z,2.00
2018-03-25T04:05:42.523Z,1.90
2018-03-25T04:08:08.860Z,2.00
2018-03-25T04:10:35.185Z,1.90
2018-03-25T04:13:01.706Z,2.10
2018-03-25T04:15:28.235Z,1.90
2018-03-25T04:17:54.886Z,1.90
2018-03-25T04:20:21.305Z,1.90
2018-03-25T04:22:47.639Z,1.80
2018-03-25T04:25:14.042Z,1.80
2018-03-25T04:27:41.336Z,1.90
2018-03-25T04:30:07.761Z,2.00
2018-03-25T04:32:34.207Z,1.90
2018-03-25T04:35:02.088Z,1.80
2018-03-25T04:37:29.178Z,1.80
2018-03-25T04:39:55.985Z,1.80
2018-03-25T04:42:23.785Z,1.60
2018-03-25T04:44:50.965Z,1.70
2018-03-25T04:47:17.431Z,1.70
2018-03-25T04:49:43.840Z,1.60
2018-03-25T04:52:10.268Z,1.60
2018-03-25T04:54:36.755Z,1.60
2018-03-25T04:57:04.126Z,1.50
2018-03-25T04:59:31.330Z,1.50
2018-03-25T05:01:57.821Z,1.40
2018-03-25T05:04:24.266Z,1.70
2018-03-25T05:06:50.680Z,1.60
2018-03-25T05:09:17.079Z,1.60
2018-03-25T05:11:43.494Z,1.60
2018-03-25T05:14:09.884Z,1.60
2018-03-25T05:16:36.245Z,1.60
2018-03-25T05:19:02.778Z,1.70
2018-03-25T05:21:29.188Z,1.60
2018-03-25T05:23:56.264Z,1.70
2018-03-25T05:26:22.715Z,1.70
2018-03-25T05:28:49.561Z,1.80
2018-03-25T05:31:16.035Z,1.70
2018-03-25T05:33:43.328Z,1.50
2018-03-25T05:36:10.474Z,1.90
2018-03-25T05:38:36.874Z,1.90
2018-03-25T05:41:03.336Z,2.00
2018-03-25T05:43:29.707Z,1.60
2018-03-25T05:50:58.112Z,1.90
2018-03-25T05:53:25.330Z,1.90
2018-03-25T05:55:51.765Z,2.00
2018-03-25T05:58:18.516Z,1.80
2018-03-25T06:00:44.840Z,1.70
2018-03-25T06:03:11.350Z,1.80
2018-03-25T06:05:38.722Z,1.90
2018-03-25T06:08:05.467Z,1.80
2018-03-25T06:10:32.268Z,1.70
2018-03-25T06:12:58.606Z,1.70
2018-03-25T06:15:25.761Z,1.70
2018-03-25T06:17:52.558Z,1.40
2018-03-25T06:20:19.772Z,1.80
2018-03-25T06:22:46.259Z,2.00
2018-03-25T06:25:13.760Z,1.90
2018-03-25T06:27:40.284Z,2.00
2018-03-25T06:30:06.707Z,2.00
2018-03-25T06:32:34.633Z,2.10
2018-03-25T06:35:01.107Z,2.30
2018-03-25T06:37:27.585Z,2.40
2018-03-25T06:39:54.755Z,2.70
2018-03-25T06:42:21.935Z,2.80
2018-03-25T06:44:48.310Z,2.90
2018-03-25T06:47:15.032Z,3.10
2018-03-25T06:49:41.775Z,3.20
2018-03-25T06:52:08.179Z,3.40
2018-03-25T06:54:34.643Z,3.60
2018-03-25T06:57:01.081Z,3.40
2018-03-25T06:59:27.633Z,3.40
2018-03-25T07:01:56.019Z,3.60
2018-03-25T07:04:23.649Z,3.80
2018-03-25T07:06:50.166Z,3.80
2018-03-25T07:09:17.020Z,4.00
2018-03-25T07:11:43.590Z,4.30
2018-03-25T07:14:10.322Z,4.50
2018-03-25T07:16:36.747Z,4.60
2018-03-25T07:19:03.190Z,4.80
2018-03-25T07:21:29.943Z,4.90
2018-03-25T07:23:56.309Z,4.90
2018-03-25T07:26:22.759Z,4.90
2018-03-25T07:28:49.892Z,5.00
2018-03-25T07:31:16.343Z,4.80
2018-03-25T07:33:42.720Z,5.20
2018-03-25T07:36:09.226Z,5.30
2018-03-25T07:38:35.689Z,5.40
2018-03-25T07:41:02.313Z,5.50
2018-03-25T07:43:29.053Z,5.70
2018-03-25T07:45:55.797Z,5.80
2018-03-25T07:48:22.135Z,5.90
2018-03-25T07:50:48.492Z,5.90
2018-03-25T07:55:42.944Z,6.00
2018-03-25T07:58:09.389Z,6.10
2018-03-25T08:00:35.964Z,5.60
2018-03-25T08:03:02.466Z,5.80
2018-03-25T08:05:28.834Z,5.80
2018-03-25T08:07:56.465Z,5.80
2018-03-25T08:10:22.840Z,6.00
2018-03-25T08:12:50.002Z,5.90
2018-03-25T08:15:16.507Z,5.80
2018-03-25T08:17:42.976Z,6.00
2018-03-25T08:20:09.411Z,6.40
2018-03-25T08:25:04.905Z,6.40
2018-03-25T08:27:32.082Z,6.60
2018-03-25T08:29:58.492Z,6.50
2018-03-25T08:32:24.917Z,6.60
2018-03-25T08:34:51.315Z,6.50
2018-03-25T08:37:19.269Z,6.70
2018-03-25T08:39:46.664Z,6.80
2018-03-25T08:42:13.102Z,7.00
2018-03-25T08:44:40.992Z,7.10
2018-03-25T08:47:08.911Z,7.20
2018-03-25T08:49:35.339Z,7.40
2018-03-25T08:52:01.760Z,7.50
2018-03-25T08:54:28.232Z,7.60
2018-03-25T08:56:54.654Z,7.80
2018-03-25T08:59:22.130Z,7.70
2018-03-25T09:01:48.549Z,7.90
2018-03-25T09:04:14.980Z,7.90
2018-03-25T09:06:42.540Z,8.00
2018-03-25T09:09:08.989Z,8.30
2018-03-25T09:11:36.228Z,8.40
2018-03-25T09:14:02.709Z,8.60
2018-03-25T09:16:29.108Z,8.60
2018-03-25T09:18:56.223Z,8.60
2018-03-25T09:21:22.756Z,8.70
2018-03-25T09:23:49.243Z,8.70
2018-03-25T09:28:43.858Z,10.40
2018-03-25T09:31:10.255Z,12.80
2018-03-25T09:33:36.969Z,15.80
2018-03-25T09:36:04.218Z,17.60
2018-03-25T09:38:31.051Z,19.00
2018-03-25T09:40:57.904Z,19.80
2018-03-25T09:43:24.784Z,20.40
2018-03-25T09:45:51.210Z,20.60
2018-03-25T09:48:17.635Z,20.30
2018-03-25T09:50:44.050Z,20.20
2018-03-25T09:53:10.399Z,19.70
2018-03-25T09:55:37.045Z,20.20
2018-03-25T09:58:03.597Z,20.70
2018-03-25T10:00:30.026Z,20.40
2018-03-25T10:05:24.847Z,19.90
2018-03-25T10:07:51.763Z,19.80
2018-03-25T10:10:18.132Z,19.60
2018-03-25T10:15:12.597Z,19.80
2018-03-25T10:17:39.748Z,20.20
2018-03-25T10:20:07.412Z,20.70
2018-03-25T10:22:33.802Z,21.20
2018-03-25T10:25:01.027Z,21.30
2018-03-25T10:27:27.837Z,21.00
2018-03-25T10:29:54.309Z,21.00
2018-03-25T10:32:21.030Z,20.90
2018-03-25T10:37:15.615Z,22.30
2018-03-25T10:39:42.160Z,22.50
2018-03-25T10:42:10.783Z,22.20
2018-03-25T10:44:37.226Z,23.00
2018-03-25T10:47:04.606Z,23.30
2018-03-25T10:49:31.929Z,24.50
2018-03-25T10:51:58.358Z,24.20
2018-03-25T10:54:24.856Z,23.30
2018-03-25T10:59:19.679Z,24.40
2018-03-25T11:01:47.722Z,24.00
2018-03-25T11:04:14.453Z,23.70
2018-03-25T11:06:41.090Z,23.40
2018-03-25T11:16:33.254Z,21.50
2018-03-25T11:19:01.386Z,22.40
2018-03-25T11:21:28.211Z,20.90
2018-03-25T11:23:57.124Z,21.40
2018-03-25T11:26:23.773Z,23.50
2018-03-25T11:28:50.292Z,23.60
2018-03-25T11:33:45.000Z,24.90
2018-03-25T11:46:05.471Z,20.00
2018-03-25T11:51:02.086Z,16.40
2018-03-25T11:53:29.142Z,14.70
2018-03-25T11:55:56.982Z,13.40
2018-03-25T11:58:23.489Z,12.70
2018-03-25T12:00:51.094Z,12.20
2018-03-25T12:03:17.782Z,11.60
2018-03-25T12:05:45.096Z,11.50
2018-03-25T12:10:39.700Z,11.00
2018-03-25T12:13:06.976Z,11.00
2018-03-25T12:18:03.500Z,10.70
2018-03-25T12:20:29.980Z,10.60
2018-03-25T12:22:57.598Z,10.30
2018-03-25T12:25:24.099Z,10.70
2018-03-25T12:27:51.608Z,10.20
2018-03-25T12:30:18.554Z,10.10
2018-03-25T12:32:48.176Z,10.20
2018-03-25T12:35:14.628Z,10.20
2018-03-25T12:40:10.394Z,10.30
2018-03-25T12:42:36.971Z,10.20
2018-03-25T12:45:03.397Z,10.40
2018-03-25T12:47:30.150Z,10.50
2018-03-25T12:49:57.713Z,10.70
2018-03-25T12:54:52.536Z,10.80
2018-03-25T12:57:20.686Z,10.90
2018-03-25T13:02:16.277Z,10.90
2018-03-25T13:04:44.229Z,11.20
2018-03-25T13:07:12.118Z,11.30
2018-03-25T13:09:39.237Z,11.40
2018-03-25T13:14:34.158Z,11.40
2018-03-25T13:17:01.361Z,11.40
2018-03-25T13:19:27.736Z,11.30
2018-03-25T13:21:54.166Z,11.00
2018-03-25T13:24:22.124Z,11.40
2018-03-25T13:26:48.563Z,11.40
2018-03-25T13:29:15.417Z,11.50
2018-03-25T13:31:41.920Z,11.50
2018-03-25T13:34:08.332Z,11.30
2018-03-25T13:36:36.806Z,11.70
2018-03-25T13:39:04.308Z,11.60
2018-03-25T13:41:31.972Z,11.60
2018-03-25T13:44:00.038Z,11.60
2018-03-25T13:46:26.898Z,11.40
2018-03-25T13:48:54.822Z,11.50
2018-03-25T13:51:21.429Z,11.50
2018-03-25T13:53:49.003Z,11.50
2018-03-25T13:56:16.574Z,11.20
2018-03-25T13:58:43.005Z,11.30
2018-03-25T14:01:09.531Z,11.10
2018-03-25T14:06:04.143Z,11.00
2018-03-25T14:08:31.168Z,11.10
2018-03-25T14:10:58.217Z,11.00
2018-03-25T14:13:26.748Z,11.10
2018-03-25T14:15:53.538Z,11.20
2018-03-25T14:18:20.793Z,11.30
2018-03-25T14:23:16.140Z,11.50
2018-03-25T14:25:43.912Z,11.50
2018-03-25T14:28:10.313Z,11.00
2018-03-25T14:30:38.659Z,11.30
2018-03-25T14:33:05.793Z,11.20
2018-03-25T14:35:32.220Z,11.20
2018-03-25T14:37:59.776Z,11.00
2018-03-25T14:40:27.265Z,11.00
2018-03-25T14:42:53.639Z,11.00
2018-03-25T14:45:21.230Z,11.00
2018-03-25T14:47:48.392Z,10.80
2018-03-25T14:50:15.151Z,10.80
2018-03-25T14:52:42.300Z,11.00
2018-03-25T14:55:08.712Z,10.90
2018-03-25T14:57:35.155Z,11.00
2018-03-25T15:00:02.402Z,10.90
2018-03-25T15:02:28.846Z,11.00
2018-03-25T15:04:55.492Z,10.80
2018-03-25T15:07:22.671Z,10.60
2018-03-25T15:09:50.203Z,10.60
2018-03-25T15:12:17.338Z,10.60
2018-03-25T15:14:43.777Z,10.50
2018-03-25T15:17:10.519Z,10.60
2018-03-25T15:19:38.043Z,10.60
2018-03-25T15:22:04.788Z,10.60
2018-03-25T15:24:31.232Z,10.50
2018-03-25T15:26:57.784Z,10.40
2018-03-25T15:29:25.325Z,10.40
2018-03-25T15:31:52.503Z,10.30
2018-03-25T15:34:19.658Z,10.10
2018-03-25T15:39:17.911Z,10.00
2018-03-25T15:41:45.034Z,9.90
2018-03-25T15:44:11.423Z,9.90
2018-03-25T15:46:38.960Z,9.90
2018-03-25T15:49:06.517Z,10.00
2018-03-25T15:51:33.890Z,10.00
2018-03-25T15:54:01.332Z,10.00
2018-03-25T15:56:30.793Z,10.00
2018-03-25T15:58:57.312Z,10.00
2018-03-25T16:01:25.437Z,9.90
2018-03-25T16:03:53.643Z,9.90
2018-03-25T16:06:20.540Z,9.80
2018-03-25T16:08:49.429Z,9.70
2018-03-25T16:11:16.404Z,9.80
2018-03-25T16:13:44.313Z,9.90
2018-03-25T16:16:11.005Z,9.80
2018-03-25T16:18:38.444Z,9.80
2018-03-25T16:23:33.789Z,9.60
2018-03-25T16:26:00.753Z,9.20
2018-03-25T16:30:56.459Z,9.10
2018-03-25T16:33:23.289Z,8.90
2018-03-25T16:35:50.115Z,8.40
2018-03-25T16:38:17.276Z,8.80
2018-03-25T16:40:44.438Z,8.70
2018-03-25T16:45:40.152Z,8.50
2018-03-25T16:48:06.651Z,8.40
2018-03-25T16:50:33.837Z,8.30
2018-03-25T16:53:00.281Z,8.40
2018-03-25T16:55:27.481Z,8.20
2018-03-25T16:57:54.795Z,8.10
2018-03-25T17:00:21.166Z,8.10
2018-03-25T17:02:47.562Z,8.10
2018-03-25T17:05:14.089Z,8.10
2018-03-25T17:07:41.041Z,8.20
2018-03-25T17:10:07.576Z,8.10
2018-03-25T17:12:34.015Z,8.10
2018-03-25T17:15:00.466Z,8.20
2018-03-25T17:17:27.325Z,8.10
2018-03-25T17:19:54.480Z,8.10
2018-03-25T17:22:21.156Z,8.10
2018-03-25T17:24:48.375Z,8.00
2018-03-25T17:29:43.395Z,8.10
2018-03-25T17:32:10.018Z,7.90
2018-03-25T17:34:37.139Z,7.90
2018-03-25T17:37:05.923Z,7.80
2018-03-25T17:39:32.658Z,7.90
2018-03-25T17:41:59.758Z,7.70
2018-03-25T17:44:26.556Z,7.70
2018-03-25T17:46:54.092Z,7.60
2018-03-25T17:49:20.626Z,7.70
2018-03-25T17:51:47.085Z,7.60
2018-03-25T17:56:42.006Z,7.40
2018-03-25T17:59:08.859Z,7.70
2018-03-25T18:01:35.648Z,7.50
2018-03-25T18:04:02.186Z,7.50
2018-03-25T18:06:29.816Z,7.50
2018-03-25T18:08:56.589Z,7.40
2018-03-25T18:11:23.161Z,7.50
2018-03-25T18:13:50.412Z,7.50
2018-03-25T18:16:16.950Z,7.40
2018-03-25T18:18:43.529Z,7.10
2018-03-25T18:21:10.096Z,7.50
2018-03-25T18:23:36.518Z,7.30
2018-03-25T18:26:03.848Z,7.30
2018-03-25T18:28:30.215Z,7.30
2018-03-25T18:30:56.675Z,7.20
2018-03-25T18:33:24.042Z,7.20
2018-03-25T18:35:50.712Z,7.50
2018-03-25T18:38:17.721Z,7.30
2018-03-25T18:40:44.351Z,7.30
2018-03-25T18:43:10.749Z,7.20
2018-03-25T18:45:37.176Z,7.10
2018-03-25T18:48:03.653Z,7.10
2018-03-25T18:50:30.898Z,7.00
2018-03-25T18:52:58.399Z,7.00
2018-03-25T18:55:25.822Z,6.90
2018-03-25T18:57:52.567Z,6.90
2018-03-25T19:00:19.375Z,6.90
2018-03-25T19:02:45.863Z,6.70
2018-03-25T19:05:12.963Z,6.80
2018-03-25T19:07:39.461Z,6.90
2018-03-25T19:10:05.934Z,6.80
2018-03-25T19:12:32.339Z,7.00
2018-03-25T19:15:00.205Z,6.80
2018-03-25T19:17:26.669Z,6.80
2018-03-25T19:19:53.119Z,6.50
2018-03-25T19:22:19.589Z,6.70
2018-03-25T19:24:46.845Z,6.80
2018-03-25T19:27:13.330Z,6.70
2018-03-25T19:29:40.154Z,6.80
2018-03-25T19:32:06.756Z,6.80
2018-03-25T19:34:34.069Z,6.60
2018-03-25T19:37:00.809Z,6.60
2018-03-25T19:39:28.393Z,6.60
2018-03-25T19:41:54.881Z,6.90
2018-03-25T19:44:22.513Z,6.50
2018-03-25T19:46:49.347Z,6.50
2018-03-25T19:49:16.196Z,6.50
2018-03-25T19:51:42.598Z,6.50
2018-03-25T19:54:09.117Z,6.40
2018-03-25T19:56:36.236Z,6.50
2018-03-25T19:59:03.504Z,6.40
2018-03-25T20:01:31.551Z,6.50
2018-03-25T20:03:59.750Z,6.30
2018-03-25T20:06:27.917Z,6.40
2018-03-25T20:08:54.842Z,6.10
2018-03-25T20:11:22.466Z,6.40
2018-03-25T20:13:48.925Z,6.30
2018-03-25T20:16:16.220Z,6.40
2018-03-25T20:18:42.792Z,6.20
2018-03-25T20:21:09.327Z,6.40
2018-03-25T20:23:35.897Z,6.20
2018-03-25T20:26:02.565Z,6.20
2018-03-25T20:28:30.635Z,6.20
2018-03-25T20:30:57.031Z,6.10
2018-03-25T20:33:23.444Z,6.40
2018-03-25T20:35:51.853Z,6.30
2018-03-25T20:38:20.673Z,6.40
2018-03-25T20:40:48.477Z,6.40
2018-03-25T20:43:15.807Z,6.40
2018-03-25T20:45:42.376Z,6.40
2018-03-25T20:48:09.897Z,6.30
2018-03-25T20:50:36.493Z,6.40
2018-03-25T20:53:03.308Z,6.30
2018-03-25T20:55:29.725Z,6.30
2018-03-25T20:57:56.084Z,6.20
2018-03-25T21:00:22.639Z,6.30
2018-03-25T21:02:49.579Z,6.30
2018-03-25T21:05:16.192Z,6.30
2018-03-25T21:07:43.962Z,6.30
2018-03-25T21:10:10.444Z,6.40
2018-03-25T21:12:36.990Z,6.30
2018-03-25T21:15:03.949Z,6.40
2018-03-25T21:17:30.536Z,6.40
2018-03-25T21:19:57.158Z,6.50
2018-03-25T21:22:24.090Z,6.50
2018-03-25T21:24:51.343Z,6.40
2018-03-25T21:27:17.986Z,6.40
2018-03-25T21:29:44.574Z,6.40
2018-03-25T21:32:11.036Z,6.40
2018-03-25T21:34:37.887Z,6.80
2018-03-25T21:37:04.443Z,6.40
2018-03-25T21:39:30.941Z,6.50
2018-03-25T21:41:57.363Z,6.50
2018-03-25T21:44:23.830Z,6.60
2018-03-25T21:46:50.293Z,6.40
2018-03-25T21:49:16.784Z,6.40
2018-03-25T21:51:43.245Z,6.30
2018-03-25T21:54:09.641Z,6.40
2018-03-25T21:56:36.283Z,6.40
2018-03-25T21:59:03.270Z,6.30
2018-03-25T22:01:31.279Z,6.30
2018-03-25T22:03:57.683Z,6.10
2018-03-25T22:06:24.207Z,6.10
2018-03-25T22:08:52.236Z,6.30
2018-03-25T22:11:19.480Z,6.60
2018-03-25T22:13:47.841Z,6.20
2018-03-25T22:16:14.720Z,6.20
2018-03-25T22:18:53.502Z,6.20
2018-03-25T22:21:20.124Z,6.10
2018-03-25T22:23:46.550Z,6.10
2018-03-25T22:26:13.036Z,5.80
2018-03-25T22:28:39.653Z,6.10
2018-03-25T22:31:06.144Z,5.90
2018-03-25T22:33:33.624Z,6.10
2018-03-25T22:36:00.856Z,6.10
2018-03-25T22:38:28.414Z,6.10
2018-03-25T22:40:55.077Z,6.10
2018-03-25T22:43:22.310Z,6.10
2018-03-25T22:45:48.708Z,6.00
2018-03-25T22:48:15.209Z,6.00
2018-03-25T22:50:42.000Z,5.90
2018-03-25T22:53:08.462Z,5.90
2018-03-25T22:55:34.883Z,5.90
2018-03-25T22:58:02.214Z,6.00
2018-03-25T23:00:28.684Z,6.00
2018-03-25T23:02:55.503Z,6.00
2018-03-25T23:05:21.906Z,6.00
2018-03-25T23:07:48.441Z,5.80
2018-03-25T23:10:14.890Z,5.90
2018-03-25T23:12:41.369Z,6.00
2018-03-25T23:15:07.804Z,5.80
2018-03-25T23:17:34.298Z,5.80
2018-03-25T23:20:00.721Z,5.90
2018-03-25T23:22:28.066Z,5.90
2018-03-25T23:24:54.580Z,5.90
2018-03-25T23:27:20.944Z,5.80
2018-03-25T23:29:47.447Z,5.80
2018-03-25T23:32:13.986Z,6.00
2018-03-25T23:34:40.344Z,5.90
2018-03-25T23:37:06.780Z,5.90
2018-03-25T23:39:33.248Z,5.80
2018-03-25T23:42:00.023Z,5.80
2018-03-25T23:44:26.432Z,5.80
2018-03-25T23:46:53.117Z,5.90
2018-03-25T23:49:19.523Z,6.00
2018-03-25T23:51:46.036Z,5.90
2018-03-25T23:54:12.461Z,5.90
2018-03-25T23:56:38.857Z,5.90
2018-03-25T23:59:05.973Z,5.90
